sensor_id;sensor_type;location;lat;lon;timestamp;temperature;humidity
45807;DHT22;31507;51.494;7.518;2023-06-24T00:01:48;15.40;99.90
45807;DHT22;31507;51.494;7.518;2023-06-24T00:04:14;15.30;99.90
45807;DHT22;31507;51.494;7.518;2023-06-24T00:06:40;15.30;99.90
45807;DHT22;31507;51.494;7.518;2023-06-24T00:09:06;15.30;99.90
45807;DHT22;31507;51.494;7.518;2023-06-24T00:11:33;15.30;99.90
45807;DHT22;31507;51.494;7.518;2023-06-24T00:13:58;15.40;99.90
45807;DHT22;31507;51.494;7.518;2023-06-24T00:16:24;15.40;99.90
45807;DHT22;31507;51.494;7.518;2023-06-24T00:18:54;15.50;99.90
45807;DHT22;31507;51.494;7.518;2023-06-24T00:21:24;15.50;99.90
45807;DHT22;31507;51.494;7.518;2023-06-24T00:23:58;15.50;99.90
45807;DHT22;31507;51.494;7.518;2023-06-24T00:26:24;15.50;99.90
45807;DHT22;31507;51.494;7.518;2023-06-24T00:28:50;15.50;99.90
45807;DHT22;31507;51.494;7.518;2023-06-24T00:31:16;15.40;99.90
45807;DHT22;31507;51.494;7.518;2023-06-24T00:33:41;15.40;99.90
45807;DHT22;31507;51.494;7.518;2023-06-24T00:36:07;15.40;99.90
45807;DHT22;31507;51.494;7.518;2023-06-24T00:38:37;15.50;99.90
45807;DHT22;31507;51.494;7.518;2023-06-24T00:41:03;15.50;99.90
45807;DHT22;31507;51.494;7.518;2023-06-24T00:43:29;15.50;99.90
45807;DHT22;31507;51.494;7.518;2023-06-24T00:45:56;15.40;99.90
45807;DHT22;31507;51.494;7.518;2023-06-24T00:48:22;15.40;99.90
45807;DHT22;31507;51.494;7.518;2023-06-24T00:50:48;15.30;99.90
45807;DHT22;31507;51.494;7.518;2023-06-24T00:53:15;15.30;99.90
45807;DHT22;31507;51.494;7.518;2023-06-24T00:55:51;15.20;99.90
45807;DHT22;31507;51.494;7.518;2023-06-24T00:58:18;15.10;99.90
45807;DHT22;31507;51.494;7.518;2023-06-24T01:00:46;15.10;99.90
45807;DHT22;31507;51.494;7.518;2023-06-24T01:03:13;15.00;99.90
45807;DHT22;31507;51.494;7.518;2023-06-24T01:05:40;14.90;99.90
45807;DHT22;31507;51.494;7.518;2023-06-24T01:08:06;14.90;99.90
45807;DHT22;31507;51.494;7.518;2023-06-24T01:10:32;14.80;99.90
45807;DHT22;31507;51.494;7.518;2023-06-24T01:12:58;14.80;99.90
45807;DHT22;31507;51.494;7.518;2023-06-24T01:15:24;14.80;99.90
45807;DHT22;31507;51.494;7.518;2023-06-24T01:36:50;15.10;99.90
45807;DHT22;31507;51.494;7.518;2023-06-24T01:39:17;15.10;99.90
45807;DHT22;31507;51.494;7.518;2023-06-24T01:41:55;15.10;99.90
45807;DHT22;31507;51.494;7.518;2023-06-24T01:44:22;15.20;99.90
45807;DHT22;31507;51.494;7.518;2023-06-24T01:46:52;15.10;99.90
45807;DHT22;31507;51.494;7.518;2023-06-24T01:49:21;15.00;99.90
45807;DHT22;31507;51.494;7.518;2023-06-24T01:51:48;14.90;99.90
45807;DHT22;31507;51.494;7.518;2023-06-24T01:54:17;14.80;99.90
45807;DHT22;31507;51.494;7.518;2023-06-24T01:56:49;14.80;99.90
45807;DHT22;31507;51.494;7.518;2023-06-24T01:59:17;14.70;99.90
45807;DHT22;31507;51.494;7.518;2023-06-24T02:01:44;14.80;99.90
45807;DHT22;31507;51.494;7.518;2023-06-24T02:04:11;14.80;99.90
45807;DHT22;31507;51.494;7.518;2023-06-24T02:06:39;14.80;99.90
45807;DHT22;31507;51.494;7.518;2023-06-24T02:09:07;14.80;99.90
45807;DHT22;31507;51.494;7.518;2023-06-24T02:11:33;14.90;99.90
45807;DHT22;31507;51.494;7.518;2023-06-24T02:14:01;15.00;99.90
45807;DHT22;31507;51.494;7.518;2023-06-24T02:16:29;15.10;99.90
45807;DHT22;31507;51.494;7.518;2023-06-24T02:18:55;15.10;99.90
45807;DHT22;31507;51.494;7.518;2023-06-24T02:21:22;15.20;99.90
45807;DHT22;31507;51.494;7.518;2023-06-24T02:23:49;15.20;99.90
45807;DHT22;31507;51.494;7.518;2023-06-24T02:26:17;15.20;99.90
45807;DHT22;31507;51.494;7.518;2023-06-24T02:28:47;15.20;99.90
45807;DHT22;31507;51.494;7.518;2023-06-24T02:31:14;15.20;99.90
45807;DHT22;31507;51.494;7.518;2023-06-24T02:33:40;15.20;99.90
45807;DHT22;31507;51.494;7.518;2023-06-24T02:36:06;15.10;99.90
45807;DHT22;31507;51.494;7.518;2023-06-24T02:38:32;15.10;99.90
45807;DHT22;31507;51.494;7.518;2023-06-24T02:40:58;15.10;99.90
45807;DHT22;31507;51.494;7.518;2023-06-24T02:43:24;15.10;99.90
45807;DHT22;31507;51.494;7.518;2023-06-24T02:45:49;15.10;99.90
45807;DHT22;31507;51.494;7.518;2023-06-24T02:48:16;15.10;99.90
45807;DHT22;31507;51.494;7.518;2023-06-24T02:50:43;15.10;99.90
45807;DHT22;31507;51.494;7.518;2023-06-24T02:53:14;15.00;99.90
45807;DHT22;31507;51.494;7.518;2023-06-24T02:55:41;15.10;99.90
45807;DHT22;31507;51.494;7.518;2023-06-24T02:58:08;15.10;99.90
45807;DHT22;31507;51.494;7.518;2023-06-24T03:00:37;15.00;99.90
45807;DHT22;31507;51.494;7.518;2023-06-24T03:03:04;15.10;99.90
45807;DHT22;31507;51.494;7.518;2023-06-24T03:05:31;15.10;99.90
45807;DHT22;31507;51.494;7.518;2023-06-24T03:07:58;15.10;99.90
45807;DHT22;31507;51.494;7.518;2023-06-24T03:10:25;15.10;99.90
45807;DHT22;31507;51.494;7.518;2023-06-24T03:12:51;15.10;99.90
45807;DHT22;31507;51.494;7.518;2023-06-24T03:15:17;15.00;99.90
45807;DHT22;31507;51.494;7.518;2023-06-24T03:17:43;14.90;99.90
45807;DHT22;31507;51.494;7.518;2023-06-24T03:20:09;14.80;99.90
45807;DHT22;31507;51.494;7.518;2023-06-24T03:22:35;14.80;99.90
45807;DHT22;31507;51.494;7.518;2023-06-24T03:25:00;14.80;99.90
45807;DHT22;31507;51.494;7.518;2023-06-24T03:27:26;14.70;99.90
45807;DHT22;31507;51.494;7.518;2023-06-24T03:29:51;14.70;99.90
45807;DHT22;31507;51.494;7.518;2023-06-24T03:32:17;14.70;99.90
45807;DHT22;31507;51.494;7.518;2023-06-24T03:34:43;14.70;99.90
45807;DHT22;31507;51.494;7.518;2023-06-24T03:37:08;14.80;99.90
45807;DHT22;31507;51.494;7.518;2023-06-24T03:39:34;15.00;99.90
45807;DHT22;31507;51.494;7.518;2023-06-24T03:42:00;15.10;99.90
45807;DHT22;31507;51.494;7.518;2023-06-24T03:44:26;15.20;99.90
45807;DHT22;31507;51.494;7.518;2023-06-24T03:46:51;15.30;99.90
45807;DHT22;31507;51.494;7.518;2023-06-24T03:49:17;15.40;99.90
45807;DHT22;31507;51.494;7.518;2023-06-24T03:51:43;15.40;99.90
45807;DHT22;31507;51.494;7.518;2023-06-24T03:54:09;15.50;99.90
45807;DHT22;31507;51.494;7.518;2023-06-24T03:56:35;15.50;99.90
45807;DHT22;31507;51.494;7.518;2023-06-24T03:59:00;15.50;99.90
45807;DHT22;31507;51.494;7.518;2023-06-24T04:01:26;15.50;99.90
45807;DHT22;31507;51.494;7.518;2023-06-24T04:03:52;15.50;99.90
45807;DHT22;31507;51.494;7.518;2023-06-24T04:06:18;15.60;99.90
45807;DHT22;31507;51.494;7.518;2023-06-24T04:08:43;15.60;99.90
45807;DHT22;31507;51.494;7.518;2023-06-24T04:11:09;15.70;99.90
45807;DHT22;31507;51.494;7.518;2023-06-24T04:13:35;15.80;99.90
45807;DHT22;31507;51.494;7.518;2023-06-24T04:16:01;15.90;99.90
45807;DHT22;31507;51.494;7.518;2023-06-24T04:18:27;15.90;99.90
45807;DHT22;31507;51.494;7.518;2023-06-24T04:20:53;16.00;99.90
45807;DHT22;31507;51.494;7.518;2023-06-24T04:23:19;16.20;99.90
45807;DHT22;31507;51.494;7.518;2023-06-24T04:25:45;16.20;99.90
45807;DHT22;31507;51.494;7.518;2023-06-24T04:28:10;16.30;99.90
45807;DHT22;31507;51.494;7.518;2023-06-24T04:30:36;16.30;99.90
45807;DHT22;31507;51.494;7.518;2023-06-24T04:33:04;16.40;99.90
45807;DHT22;31507;51.494;7.518;2023-06-24T04:35:30;16.40;99.90
45807;DHT22;31507;51.494;7.518;2023-06-24T04:37:57;16.50;99.90
45807;DHT22;31507;51.494;7.518;2023-06-24T04:40:23;16.60;99.90
45807;DHT22;31507;51.494;7.518;2023-06-24T04:42:48;16.70;99.90
45807;DHT22;31507;51.494;7.518;2023-06-24T04:45:14;16.70;99.90
45807;DHT22;31507;51.494;7.518;2023-06-24T04:47:40;16.80;99.90
45807;DHT22;31507;51.494;7.518;2023-06-24T04:50:06;16.80;99.90
45807;DHT22;31507;51.494;7.518;2023-06-24T04:52:35;16.90;99.90
45807;DHT22;31507;51.494;7.518;2023-06-24T04:55:01;17.00;99.90
45807;DHT22;31507;51.494;7.518;2023-06-24T04:57:30;17.00;99.90
45807;DHT22;31507;51.494;7.518;2023-06-24T04:59:57;17.10;99.90
45807;DHT22;31507;51.494;7.518;2023-06-24T05:02:23;17.20;99.90
45807;DHT22;31507;51.494;7.518;2023-06-24T05:04:49;17.30;99.90
45807;DHT22;31507;51.494;7.518;2023-06-24T05:07:15;17.50;99.90
45807;DHT22;31507;51.494;7.518;2023-06-24T05:09:42;17.70;99.90
45807;DHT22;31507;51.494;7.518;2023-06-24T05:12:09;17.90;99.90
45807;DHT22;31507;51.494;7.518;2023-06-24T05:14:35;17.90;99.90
45807;DHT22;31507;51.494;7.518;2023-06-24T05:17:02;17.90;99.90
45807;DHT22;31507;51.494;7.518;2023-06-24T05:19:28;18.00;99.90
45807;DHT22;31507;51.494;7.518;2023-06-24T05:21:54;18.10;99.90
45807;DHT22;31507;51.494;7.518;2023-06-24T05:24:19;18.30;99.90
45807;DHT22;31507;51.494;7.518;2023-06-24T05:26:48;18.40;99.90
45807;DHT22;31507;51.494;7.518;2023-06-24T05:29:14;18.50;99.90
45807;DHT22;31507;51.494;7.518;2023-06-24T05:31:40;18.50;99.90
45807;DHT22;31507;51.494;7.518;2023-06-24T05:34:06;18.50;99.90
45807;DHT22;31507;51.494;7.518;2023-06-24T05:36:31;18.50;99.90
45807;DHT22;31507;51.494;7.518;2023-06-24T05:38:57;18.50;99.90
45807;DHT22;31507;51.494;7.518;2023-06-24T05:41:23;18.60;99.90
45807;DHT22;31507;51.494;7.518;2023-06-24T05:43:49;18.60;99.90
45807;DHT22;31507;51.494;7.518;2023-06-24T05:46:15;18.60;99.90
45807;DHT22;31507;51.494;7.518;2023-06-24T05:48:40;18.60;99.90
45807;DHT22;31507;51.494;7.518;2023-06-24T05:51:07;18.70;99.90
45807;DHT22;31507;51.494;7.518;2023-06-24T05:53:34;19.00;99.90
45807;DHT22;31507;51.494;7.518;2023-06-24T05:55:59;19.30;99.90
45807;DHT22;31507;51.494;7.518;2023-06-24T05:58:25;19.50;99.90
45807;DHT22;31507;51.494;7.518;2023-06-24T06:00:51;19.90;99.90
45807;DHT22;31507;51.494;7.518;2023-06-24T06:03:17;20.30;99.90
45807;DHT22;31507;51.494;7.518;2023-06-24T06:05:43;20.50;99.90
45807;DHT22;31507;51.494;7.518;2023-06-24T06:08:08;20.90;99.90
45807;DHT22;31507;51.494;7.518;2023-06-24T06:10:34;21.60;99.90
45807;DHT22;31507;51.494;7.518;2023-06-24T06:12:59;21.80;99.90
45807;DHT22;31507;51.494;7.518;2023-06-24T06:15:25;22.00;99.90
45807;DHT22;31507;51.494;7.518;2023-06-24T06:17:51;21.90;99.90
45807;DHT22;31507;51.494;7.518;2023-06-24T06:20:17;21.50;99.90
45807;DHT22;31507;51.494;7.518;2023-06-24T06:22:43;21.20;99.90
45807;DHT22;31507;51.494;7.518;2023-06-24T06:25:09;21.10;99.90
45807;DHT22;31507;51.494;7.518;2023-06-24T06:27:34;21.10;99.90
45807;DHT22;31507;51.494;7.518;2023-06-24T06:30:00;21.10;99.90
45807;DHT22;31507;51.494;7.518;2023-06-24T06:32:26;21.20;99.90
45807;DHT22;31507;51.494;7.518;2023-06-24T06:34:51;21.20;99.90
45807;DHT22;31507;51.494;7.518;2023-06-24T06:37:17;21.30;99.90
45807;DHT22;31507;51.494;7.518;2023-06-24T06:39:43;21.20;99.90
45807;DHT22;31507;51.494;7.518;2023-06-24T06:42:08;21.30;99.90
45807;DHT22;31507;51.494;7.518;2023-06-24T06:44:34;21.30;99.90
45807;DHT22;31507;51.494;7.518;2023-06-24T06:46:59;21.40;99.90
45807;DHT22;31507;51.494;7.518;2023-06-24T06:49:25;21.80;99.90
45807;DHT22;31507;51.494;7.518;2023-06-24T06:51:54;21.90;99.90
45807;DHT22;31507;51.494;7.518;2023-06-24T06:54:20;22.10;99.90
45807;DHT22;31507;51.494;7.518;2023-06-24T06:56:45;22.10;99.90
45807;DHT22;31507;51.494;7.518;2023-06-24T06:59:11;22.10;99.90
45807;DHT22;31507;51.494;7.518;2023-06-24T07:01:37;22.20;99.90
45807;DHT22;31507;51.494;7.518;2023-06-24T07:04:02;22.40;99.90
45807;DHT22;31507;51.494;7.518;2023-06-24T07:06:28;22.40;99.90
45807;DHT22;31507;51.494;7.518;2023-06-24T07:08:54;22.30;99.90
45807;DHT22;31507;51.494;7.518;2023-06-24T07:11:19;22.20;99.90
45807;DHT22;31507;51.494;7.518;2023-06-24T07:13:45;22.30;99.90
45807;DHT22;31507;51.494;7.518;2023-06-24T07:16:11;22.20;99.90
45807;DHT22;31507;51.494;7.518;2023-06-24T07:18:37;22.30;99.90
45807;DHT22;31507;51.494;7.518;2023-06-24T07:21:02;22.70;99.90
45807;DHT22;31507;51.494;7.518;2023-06-24T07:23:28;22.90;99.90
45807;DHT22;31507;51.494;7.518;2023-06-24T07:25:54;23.00;99.90
45807;DHT22;31507;51.494;7.518;2023-06-24T07:28:19;23.00;99.90
45807;DHT22;31507;51.494;7.518;2023-06-24T07:30:45;23.10;99.90
45807;DHT22;31507;51.494;7.518;2023-06-24T07:33:11;23.20;99.90
45807;DHT22;31507;51.494;7.518;2023-06-24T07:35:36;23.30;99.90
45807;DHT22;31507;51.494;7.518;2023-06-24T07:38:02;23.50;99.90
45807;DHT22;31507;51.494;7.518;2023-06-24T07:40:28;24.00;99.40
45807;DHT22;31507;51.494;7.518;2023-06-24T07:42:54;24.60;98.90
45807;DHT22;31507;51.494;7.518;2023-06-24T07:45:19;25.20;97.20
45807;DHT22;31507;51.494;7.518;2023-06-24T07:47:45;25.40;94.00
45807;DHT22;31507;51.494;7.518;2023-06-24T07:50:11;25.30;94.60
45807;DHT22;31507;51.494;7.518;2023-06-24T07:52:39;25.20;94.40
45807;DHT22;31507;51.494;7.518;2023-06-24T07:55:05;25.10;94.00
45807;DHT22;31507;51.494;7.518;2023-06-24T07:57:31;24.90;94.00
45807;DHT22;31507;51.494;7.518;2023-06-24T07:59:57;24.90;93.00
45807;DHT22;31507;51.494;7.518;2023-06-24T08:02:22;24.80;93.60
45807;DHT22;31507;51.494;7.518;2023-06-24T08:04:50;24.80;92.30
45807;DHT22;31507;51.494;7.518;2023-06-24T08:07:16;25.10;92.40
45807;DHT22;31507;51.494;7.518;2023-06-24T08:09:41;24.80;92.10
45807;DHT22;31507;51.494;7.518;2023-06-24T08:12:07;25.00;92.50
45807;DHT22;31507;51.494;7.518;2023-06-24T08:14:33;25.40;91.30
45807;DHT22;31507;51.494;7.518;2023-06-24T08:16:59;25.60;90.00
45807;DHT22;31507;51.494;7.518;2023-06-24T08:19:24;25.90;90.10
45807;DHT22;31507;51.494;7.518;2023-06-24T08:21:50;26.10;87.10
45807;DHT22;31507;51.494;7.518;2023-06-24T08:24:16;26.30;87.50
45807;DHT22;31507;51.494;7.518;2023-06-24T08:26:41;26.50;87.00
45807;DHT22;31507;51.494;7.518;2023-06-24T08:29:07;26.80;86.10
45807;DHT22;31507;51.494;7.518;2023-06-24T08:31:33;27.00;84.40
45807;DHT22;31507;51.494;7.518;2023-06-24T08:34:01;27.20;84.00
45807;DHT22;31507;51.494;7.518;2023-06-24T08:36:31;27.40;83.80
45807;DHT22;31507;51.494;7.518;2023-06-24T08:38:57;27.40;83.30
45807;DHT22;31507;51.494;7.518;2023-06-24T08:41:23;27.50;81.60
45807;DHT22;31507;51.494;7.518;2023-06-24T08:43:50;27.20;81.50
45807;DHT22;31507;51.494;7.518;2023-06-24T08:46:18;27.30;80.30
45807;DHT22;31507;51.494;7.518;2023-06-24T08:48:45;27.00;80.70
45807;DHT22;31507;51.494;7.518;2023-06-24T08:51:13;26.60;81.60
45807;DHT22;31507;51.494;7.518;2023-06-24T08:53:42;26.90;81.50
45807;DHT22;31507;51.494;7.518;2023-06-24T08:56:09;26.90;80.00
45807;DHT22;31507;51.494;7.518;2023-06-24T08:58:35;26.70;82.20
45807;DHT22;31507;51.494;7.518;2023-06-24T09:01:02;26.70;82.30
45807;DHT22;31507;51.494;7.518;2023-06-24T09:03:28;26.80;82.00
45807;DHT22;31507;51.494;7.518;2023-06-24T09:05:53;26.80;83.40
45807;DHT22;31507;51.494;7.518;2023-06-24T09:08:19;27.00;82.70
45807;DHT22;31507;51.494;7.518;2023-06-24T09:10:52;27.00;81.10
45807;DHT22;31507;51.494;7.518;2023-06-24T09:13:18;27.40;83.00
45807;DHT22;31507;51.494;7.518;2023-06-24T09:15:44;27.50;82.40
45807;DHT22;31507;51.494;7.518;2023-06-24T09:18:10;27.30;82.90
45807;DHT22;31507;51.494;7.518;2023-06-24T09:20:41;27.50;84.00
45807;DHT22;31507;51.494;7.518;2023-06-24T09:23:10;27.50;84.80
45807;DHT22;31507;51.494;7.518;2023-06-24T09:25:36;27.40;84.10
45807;DHT22;31507;51.494;7.518;2023-06-24T09:28:02;27.40;84.70
45807;DHT22;31507;51.494;7.518;2023-06-24T09:30:28;26.80;84.80
45807;DHT22;31507;51.494;7.518;2023-06-24T09:32:54;26.80;87.30
45807;DHT22;31507;51.494;7.518;2023-06-24T09:35:22;27.30;86.50
45807;DHT22;31507;51.494;7.518;2023-06-24T09:37:55;27.70;85.70
45807;DHT22;31507;51.494;7.518;2023-06-24T09:40:21;28.00;84.90
45807;DHT22;31507;51.494;7.518;2023-06-24T09:42:56;28.00;83.90
45807;DHT22;31507;51.494;7.518;2023-06-24T09:45:26;27.90;78.50
45807;DHT22;31507;51.494;7.518;2023-06-24T09:47:53;28.10;83.50
45807;DHT22;31507;51.494;7.518;2023-06-24T09:50:19;28.20;83.50
45807;DHT22;31507;51.494;7.518;2023-06-24T09:52:45;28.30;80.90
45807;DHT22;31507;51.494;7.518;2023-06-24T09:55:14;28.10;78.40
45807;DHT22;31507;51.494;7.518;2023-06-24T09:57:43;28.20;78.20
45807;DHT22;31507;51.494;7.518;2023-06-24T10:00:10;28.30;80.90
45807;DHT22;31507;51.494;7.518;2023-06-24T10:02:37;28.40;80.00
45807;DHT22;31507;51.494;7.518;2023-06-24T10:05:03;27.90;79.80
45807;DHT22;31507;51.494;7.518;2023-06-24T10:07:31;27.60;81.70
45807;DHT22;31507;51.494;7.518;2023-06-24T10:09:57;28.00;80.80
45807;DHT22;31507;51.494;7.518;2023-06-24T10:12:22;28.50;79.70
45807;DHT22;31507;51.494;7.518;2023-06-24T10:14:49;28.80;78.30
45807;DHT22;31507;51.494;7.518;2023-06-24T10:17:14;28.60;76.40
45807;DHT22;31507;51.494;7.518;2023-06-24T10:19:41;28.30;74.00
45807;DHT22;31507;51.494;7.518;2023-06-24T10:22:10;28.50;75.20
45807;DHT22;31507;51.494;7.518;2023-06-24T10:24:41;28.90;73.80
45807;DHT22;31507;51.494;7.518;2023-06-24T10:27:21;28.90;73.80
45807;DHT22;31507;51.494;7.518;2023-06-24T10:29:51;29.00;71.00
45807;DHT22;31507;51.494;7.518;2023-06-24T10:32:19;29.00;69.50
45807;DHT22;31507;51.494;7.518;2023-06-24T10:34:47;29.00;70.70
45807;DHT22;31507;51.494;7.518;2023-06-24T10:37:23;28.90;71.10
45807;DHT22;31507;51.494;7.518;2023-06-24T10:39:56;29.00;71.10
45807;DHT22;31507;51.494;7.518;2023-06-24T10:42:41;29.00;71.80
45807;DHT22;31507;51.494;7.518;2023-06-24T10:50:11;29.00;69.60
45807;DHT22;31507;51.494;7.518;2023-06-24T10:52:44;28.80;69.50
45807;DHT22;31507;51.494;7.518;2023-06-24T10:55:15;29.20;71.40
45807;DHT22;31507;51.494;7.518;2023-06-24T10:57:41;29.40;69.70
45807;DHT22;31507;51.494;7.518;2023-06-24T11:00:08;29.20;68.80
45807;DHT22;31507;51.494;7.518;2023-06-24T11:02:34;29.30;68.50
45807;DHT22;31507;51.494;7.518;2023-06-24T11:05:01;29.10;68.40
45807;DHT22;31507;51.494;7.518;2023-06-24T11:07:29;29.30;67.80
45807;DHT22;31507;51.494;7.518;2023-06-24T11:09:58;29.40;67.10
45807;DHT22;31507;51.494;7.518;2023-06-24T11:12:25;29.30;66.30
45807;DHT22;31507;51.494;7.518;2023-06-24T11:15:00;29.60;66.10
45807;DHT22;31507;51.494;7.518;2023-06-24T11:17:26;29.70;65.80
45807;DHT22;31507;51.494;7.518;2023-06-24T11:19:53;29.60;66.10
45807;DHT22;31507;51.494;7.518;2023-06-24T11:22:19;29.80;67.00
45807;DHT22;31507;51.494;7.518;2023-06-24T11:24:44;29.50;66.40
45807;DHT22;31507;51.494;7.518;2023-06-24T11:27:10;29.20;66.90
45807;DHT22;31507;51.494;7.518;2023-06-24T11:29:36;29.10;66.00
45807;DHT22;31507;51.494;7.518;2023-06-24T11:32:02;29.00;66.10
45807;DHT22;31507;51.494;7.518;2023-06-24T11:34:29;29.30;66.20
45807;DHT22;31507;51.494;7.518;2023-06-24T11:36:55;29.60;66.50
45807;DHT22;31507;51.494;7.518;2023-06-24T11:39:29;29.40;64.60
45807;DHT22;31507;51.494;7.518;2023-06-24T11:41:57;29.60;64.90
45807;DHT22;31507;51.494;7.518;2023-06-24T11:44:26;29.70;59.90
45807;DHT22;31507;51.494;7.518;2023-06-24T11:46:52;29.50;58.00
45807;DHT22;31507;51.494;7.518;2023-06-24T11:49:18;29.80;60.60
45807;DHT22;31507;51.494;7.518;2023-06-24T11:51:48;30.10;61.00
45807;DHT22;31507;51.494;7.518;2023-06-24T11:54:19;30.30;60.50
45807;DHT22;31507;51.494;7.518;2023-06-24T11:56:50;30.20;59.00
45807;DHT22;31507;51.494;7.518;2023-06-24T11:59:21;29.90;59.20
45807;DHT22;31507;51.494;7.518;2023-06-24T12:01:58;29.80;59.80
45807;DHT22;31507;51.494;7.518;2023-06-24T12:04:29;30.00;59.60
45807;DHT22;31507;51.494;7.518;2023-06-24T12:06:55;29.60;55.10
45807;DHT22;31507;51.494;7.518;2023-06-24T12:09:21;29.60;57.90
45807;DHT22;31507;51.494;7.518;2023-06-24T12:11:46;29.50;58.00
45807;DHT22;31507;51.494;7.518;2023-06-24T12:14:12;29.60;58.10
45807;DHT22;31507;51.494;7.518;2023-06-24T12:16:41;29.60;58.00
45807;DHT22;31507;51.494;7.518;2023-06-24T12:19:07;29.60;58.00
45807;DHT22;31507;51.494;7.518;2023-06-24T12:21:34;29.70;57.30
45807;DHT22;31507;51.494;7.518;2023-06-24T12:24:00;29.70;57.00
45807;DHT22;31507;51.494;7.518;2023-06-24T12:26:26;29.70;56.90
45807;DHT22;31507;51.494;7.518;2023-06-24T12:28:55;29.70;57.10
45807;DHT22;31507;51.494;7.518;2023-06-24T12:31:23;29.90;57.30
45807;DHT22;31507;51.494;7.518;2023-06-24T12:33:49;29.90;58.80
45807;DHT22;31507;51.494;7.518;2023-06-24T12:36:17;30.10;59.60
45807;DHT22;31507;51.494;7.518;2023-06-24T12:38:46;30.10;57.40
45807;DHT22;31507;51.494;7.518;2023-06-24T12:41:11;30.40;58.00
45807;DHT22;31507;51.494;7.518;2023-06-24T12:43:37;30.30;54.60
45807;DHT22;31507;51.494;7.518;2023-06-24T12:46:02;30.10;54.30
45807;DHT22;31507;51.494;7.518;2023-06-24T12:48:28;30.20;53.90
45807;DHT22;31507;51.494;7.518;2023-06-24T12:50:55;29.70;51.80
45807;DHT22;31507;51.494;7.518;2023-06-24T12:53:21;29.70;52.50
45807;DHT22;31507;51.494;7.518;2023-06-24T12:55:47;29.70;52.80
45807;DHT22;31507;51.494;7.518;2023-06-24T12:58:14;29.70;52.50
45807;DHT22;31507;51.494;7.518;2023-06-24T13:00:40;29.80;52.60
45807;DHT22;31507;51.494;7.518;2023-06-24T13:03:06;29.90;53.10
45807;DHT22;31507;51.494;7.518;2023-06-24T13:05:31;30.00;52.30
45807;DHT22;31507;51.494;7.518;2023-06-24T13:07:57;30.20;52.80
45807;DHT22;31507;51.494;7.518;2023-06-24T13:10:22;30.50;51.80
45807;DHT22;31507;51.494;7.518;2023-06-24T13:12:48;30.50;51.60
45807;DHT22;31507;51.494;7.518;2023-06-24T13:15:14;30.40;51.90
45807;DHT22;31507;51.494;7.518;2023-06-24T13:17:40;30.30;52.90
45807;DHT22;31507;51.494;7.518;2023-06-24T13:20:06;30.20;53.20
45807;DHT22;31507;51.494;7.518;2023-06-24T13:22:32;30.00;50.00
45807;DHT22;31507;51.494;7.518;2023-06-24T13:24:57;30.00;52.20
45807;DHT22;31507;51.494;7.518;2023-06-24T13:27:23;30.20;52.00
45807;DHT22;31507;51.494;7.518;2023-06-24T13:29:49;30.30;51.40
45807;DHT22;31507;51.494;7.518;2023-06-24T13:32:14;30.40;52.10
45807;DHT22;31507;51.494;7.518;2023-06-24T13:34:40;30.30;51.80
45807;DHT22;31507;51.494;7.518;2023-06-24T13:37:06;30.30;52.10
45807;DHT22;31507;51.494;7.518;2023-06-24T13:39:31;30.40;51.50
45807;DHT22;31507;51.494;7.518;2023-06-24T13:41:57;30.60;50.60
45807;DHT22;31507;51.494;7.518;2023-06-24T13:44:23;30.60;51.20
45807;DHT22;31507;51.494;7.518;2023-06-24T13:46:49;30.20;50.20
45807;DHT22;31507;51.494;7.518;2023-06-24T13:49:15;30.30;51.20
45807;DHT22;31507;51.494;7.518;2023-06-24T13:51:41;30.50;52.60
45807;DHT22;31507;51.494;7.518;2023-06-24T13:54:07;30.60;51.20
45807;DHT22;31507;51.494;7.518;2023-06-24T13:56:33;30.80;52.00
45807;DHT22;31507;51.494;7.518;2023-06-24T13:58:59;30.80;49.90
45807;DHT22;31507;51.494;7.518;2023-06-24T14:01:26;30.80;49.90
45807;DHT22;31507;51.494;7.518;2023-06-24T14:03:55;30.90;50.50
45807;DHT22;31507;51.494;7.518;2023-06-24T14:06:21;30.50;50.30
45807;DHT22;31507;51.494;7.518;2023-06-24T14:08:48;30.30;49.80
45807;DHT22;31507;51.494;7.518;2023-06-24T14:11:14;30.50;50.20
45807;DHT22;31507;51.494;7.518;2023-06-24T14:13:41;30.70;49.50
45807;DHT22;31507;51.494;7.518;2023-06-24T14:16:06;30.50;49.10
45807;DHT22;31507;51.494;7.518;2023-06-24T14:18:32;30.60;50.40
45807;DHT22;31507;51.494;7.518;2023-06-24T14:21:00;30.40;50.80
45807;DHT22;31507;51.494;7.518;2023-06-24T14:23:27;30.30;50.70
45807;DHT22;31507;51.494;7.518;2023-06-24T14:25:54;30.40;50.10
45807;DHT22;31507;51.494;7.518;2023-06-24T14:28:21;30.40;50.10
45807;DHT22;31507;51.494;7.518;2023-06-24T14:30:47;30.50;49.60
45807;DHT22;31507;51.494;7.518;2023-06-24T14:33:13;30.60;49.20
45807;DHT22;31507;51.494;7.518;2023-06-24T14:35:41;30.60;49.00
45807;DHT22;31507;51.494;7.518;2023-06-24T14:38:07;30.80;49.80
45807;DHT22;31507;51.494;7.518;2023-06-24T14:40:33;30.80;48.40
45807;DHT22;31507;51.494;7.518;2023-06-24T14:42:59;30.70;48.20
45807;DHT22;31507;51.494;7.518;2023-06-24T14:45:25;30.60;48.60
45807;DHT22;31507;51.494;7.518;2023-06-24T14:47:51;30.60;48.40
45807;DHT22;31507;51.494;7.518;2023-06-24T14:50:17;30.50;48.20
45807;DHT22;31507;51.494;7.518;2023-06-24T14:52:42;30.70;49.30
45807;DHT22;31507;51.494;7.518;2023-06-24T14:55:08;30.70;49.10
45807;DHT22;31507;51.494;7.518;2023-06-24T14:57:35;30.60;48.80
45807;DHT22;31507;51.494;7.518;2023-06-24T15:00:01;30.50;48.90
45807;DHT22;31507;51.494;7.518;2023-06-24T15:02:27;30.60;50.50
45807;DHT22;31507;51.494;7.518;2023-06-24T15:04:53;30.90;50.60
45807;DHT22;31507;51.494;7.518;2023-06-24T15:07:18;30.70;50.40
45807;DHT22;31507;51.494;7.518;2023-06-24T15:09:44;30.60;50.00
45807;DHT22;31507;51.494;7.518;2023-06-24T15:12:10;30.60;50.60
45807;DHT22;31507;51.494;7.518;2023-06-24T15:14:36;30.80;50.00
45807;DHT22;31507;51.494;7.518;2023-06-24T15:17:02;30.60;49.40
45807;DHT22;31507;51.494;7.518;2023-06-24T15:19:27;30.50;49.80
45807;DHT22;31507;51.494;7.518;2023-06-24T15:21:53;30.60;50.70
45807;DHT22;31507;51.494;7.518;2023-06-24T15:24:19;30.70;49.60
45807;DHT22;31507;51.494;7.518;2023-06-24T15:26:44;30.60;50.20
45807;DHT22;31507;51.494;7.518;2023-06-24T15:29:10;30.80;50.40
45807;DHT22;31507;51.494;7.518;2023-06-24T15:31:36;30.80;50.80
45807;DHT22;31507;51.494;7.518;2023-06-24T15:34:01;30.60;51.50
45807;DHT22;31507;51.494;7.518;2023-06-24T15:36:27;30.70;51.10
45807;DHT22;31507;51.494;7.518;2023-06-24T15:38:54;31.00;50.20
45807;DHT22;31507;51.494;7.518;2023-06-24T15:41:20;31.00;49.90
45807;DHT22;31507;51.494;7.518;2023-06-24T15:43:46;31.00;48.60
45807;DHT22;31507;51.494;7.518;2023-06-24T15:46:12;30.70;49.50
45807;DHT22;31507;51.494;7.518;2023-06-24T15:48:38;30.60;49.70
45807;DHT22;31507;51.494;7.518;2023-06-24T15:51:03;30.50;49.30